RYR8771 LIBC-LIMF
Flight info
| Callsign | RYR8771 |
|---|---|
| Flight time | 1h 39m |
| Altitude | 36000 |
| Route | CDC M729 AGNIS DCT DELER DCT PEVIR DCT EDOPA DCT MALOG DCT VEXUV DCT PNZ DCT RIFFI DCT ELVIN DCT LUNAK DCT RAVAL DCT MEDAL DCT GILIO DCT ELB DCT LAGEN |
| Aircraft | B738/M-SDE2E3FGHIRWXY/LB1 |
Departure
| Time | 2026-04-23 10:40 |
|---|---|
| Airport | Crotone Sant'Anna Pythagoras Airport (LIBC) |
Arrival
| Time | 2026-04-23 12:19 |
|---|---|
| Airport | Turin Airport (LIMF) |
| Time | Latitude | Longitude | Altitude | Speed | Heading |
|---|---|---|---|---|---|
| 2026-04-23 10:15 | 38.99645 | 17.07717 | 529 ft | 0 kts | 304° |
| 2026-04-23 10:34 | 38.99650 | 17.07714 | 529 ft | 2 kts | 334° |
| 2026-04-23 10:34 | 38.99659 | 17.07728 | 529 ft | 3 kts | 92° |
| 2026-04-23 10:34 | 38.99660 | 17.07754 | 529 ft | 3 kts | 78° |
| 2026-04-23 10:34 | 38.99664 | 17.07789 | 528 ft | 5 kts | 92° |
| 2026-04-23 10:35 | 38.99636 | 17.07819 | 527 ft | 7 kts | 162° |
| 2026-04-23 10:35 | 38.99588 | 17.07832 | 526 ft | 7 kts | 169° |
| 2026-04-23 10:35 | 38.99542 | 17.07843 | 526 ft | 7 kts | 169° |
| 2026-04-23 10:35 | 38.99495 | 17.07855 | 526 ft | 7 kts | 169° |
| 2026-04-23 10:36 | 38.99450 | 17.07866 | 526 ft | 7 kts | 168° |
| 2026-04-23 10:36 | 38.99416 | 17.07903 | 526 ft | 7 kts | 130° |
| 2026-04-23 10:36 | 38.99384 | 17.07953 | 525 ft | 8 kts | 129° |
| 2026-04-23 10:36 | 38.99345 | 17.08012 | 525 ft | 9 kts | 130° |
| 2026-04-23 10:37 | 38.99305 | 17.08071 | 526 ft | 9 kts | 131° |
| 2026-04-23 10:37 | 38.99266 | 17.08128 | 528 ft | 8 kts | 135° |
| 2026-04-23 10:37 | 38.99210 | 17.08153 | 528 ft | 9 kts | 167° |
| 2026-04-23 10:37 | 38.99140 | 17.08173 | 528 ft | 12 kts | 167° |
| 2026-04-23 10:38 | 38.99048 | 17.08197 | 528 ft | 15 kts | 170° |
| 2026-04-23 10:38 | 38.98952 | 17.08217 | 527 ft | 10 kts | 178° |
| 2026-04-23 10:38 | 38.98879 | 17.08200 | 524 ft | 9 kts | 189° |
| 2026-04-23 10:38 | 38.98856 | 17.08230 | 523 ft | 1 kts | 65° |
| 2026-04-23 10:39 | 38.98866 | 17.08235 | 524 ft | 1 kts | 17° |
| 2026-04-23 10:39 | 38.98876 | 17.08235 | 524 ft | 2 kts | 348° |
| 2026-04-23 10:39 | 38.99076 | 17.08183 | 528 ft | 72 kts | 348° |
| 2026-04-23 10:39 | 38.99851 | 17.07993 | 528 ft | 152 kts | 349° |
| 2026-04-23 10:40 | 39.00973 | 17.07734 | 1275 ft | 168 kts | 352° |
| 2026-04-23 10:40 | 39.02148 | 17.07501 | 2357 ft | 172 kts | 348° |
| 2026-04-23 10:40 | 39.03327 | 17.07199 | 3416 ft | 169 kts | 349° |
| 2026-04-23 10:40 | 39.04413 | 17.06913 | 4470 ft | 165 kts | 350° |
| 2026-04-23 10:41 | 39.05646 | 17.06609 | 4798 ft | 194 kts | 350° |
| 2026-04-23 10:41 | 39.07006 | 17.06279 | 5354 ft | 204 kts | 350° |
| 2026-04-23 10:41 | 39.08420 | 17.05942 | 6063 ft | 209 kts | 350° |
| 2026-04-23 10:41 | 39.09862 | 17.05605 | 6897 ft | 213 kts | 350° |
| 2026-04-23 10:42 | 39.11345 | 17.04977 | 7236 ft | 243 kts | 325° |
| 2026-04-23 10:42 | 39.12355 | 17.03130 | 7698 ft | 269 kts | 288° |
| 2026-04-23 10:42 | 39.12306 | 17.00680 | 8503 ft | 285 kts | 253° |
| 2026-04-23 10:42 | 39.11172 | 16.98568 | 9368 ft | 296 kts | 220° |
| 2026-04-23 10:43 | 39.09314 | 16.97421 | 10268 ft | 300 kts | 200° |
| 2026-04-23 10:43 | 39.07467 | 16.96112 | 10769 ft | 313 kts | 225° |
| 2026-04-23 10:43 | 39.05862 | 16.94067 | 11016 ft | 336 kts | 228° |
| 2026-04-23 10:43 | 39.04139 | 16.91946 | 11618 ft | 347 kts | 226° |
| 2026-04-23 10:44 | 39.02382 | 16.89804 | 12464 ft | 347 kts | 231° |
| 2026-04-23 10:44 | 39.00953 | 16.87339 | 13398 ft | 342 kts | 241° |
| 2026-04-23 10:44 | 38.99675 | 16.84752 | 14252 ft | 343 kts | 242° |
| 2026-04-23 10:44 | 38.98414 | 16.82134 | 15025 ft | 346 kts | 242° |
| 2026-04-23 10:45 | 38.97135 | 16.79500 | 15803 ft | 349 kts | 242° |
| 2026-04-23 10:45 | 38.95832 | 16.76849 | 16550 ft | 351 kts | 242° |
| 2026-04-23 10:45 | 38.94518 | 16.74210 | 17305 ft | 353 kts | 242° |
| 2026-04-23 10:45 | 38.93184 | 16.71549 | 17990 ft | 356 kts | 242° |
| 2026-04-23 10:46 | 38.91835 | 16.68870 | 18681 ft | 358 kts | 242° |
| 2026-04-23 10:46 | 38.90475 | 16.66176 | 19359 ft | 361 kts | 242° |
| 2026-04-23 10:46 | 38.89102 | 16.63463 | 20002 ft | 363 kts | 242° |
| 2026-04-23 10:46 | 38.87725 | 16.60743 | 20633 ft | 366 kts | 242° |
| 2026-04-23 10:47 | 38.86334 | 16.57999 | 21265 ft | 368 kts | 242° |
| 2026-04-23 10:47 | 38.84930 | 16.55231 | 21843 ft | 371 kts | 242° |
| 2026-04-23 10:47 | 38.83522 | 16.52458 | 22428 ft | 373 kts | 242° |
| 2026-04-23 10:47 | 38.82100 | 16.49659 | 23002 ft | 375 kts | 242° |
| 2026-04-23 10:48 | 38.80670 | 16.46848 | 23547 ft | 377 kts | 242° |
| 2026-04-23 10:48 | 38.79237 | 16.44024 | 24060 ft | 379 kts | 243° |
| 2026-04-23 10:48 | 38.78197 | 16.40962 | 24476 ft | 373 kts | 261° |
| 2026-04-23 10:48 | 38.77975 | 16.37679 | 24943 ft | 371 kts | 275° |
| 2026-04-23 10:49 | 38.78400 | 16.34423 | 25417 ft | 372 kts | 285° |
| 2026-04-23 10:49 | 38.79380 | 16.31342 | 25831 ft | 377 kts | 299° |
| 2026-04-23 10:49 | 38.80949 | 16.28615 | 26294 ft | 382 kts | 307° |
| 2026-04-23 10:49 | 38.82674 | 16.26013 | 26726 ft | 385 kts | 308° |
| 2026-04-23 10:50 | 38.84443 | 16.23423 | 27149 ft | 386 kts | 308° |
| 2026-04-23 10:50 | 38.86214 | 16.20827 | 27551 ft | 388 kts | 308° |
| 2026-04-23 10:50 | 38.87993 | 16.18198 | 27931 ft | 391 kts | 308° |
| 2026-04-23 10:50 | 38.89768 | 16.15548 | 28307 ft | 392 kts | 308° |
| 2026-04-23 10:51 | 38.91538 | 16.12887 | 28674 ft | 394 kts | 308° |
| 2026-04-23 10:51 | 38.93320 | 16.10196 | 29008 ft | 396 kts | 308° |
| 2026-04-23 10:51 | 38.95105 | 16.07494 | 29360 ft | 397 kts | 308° |
| 2026-04-23 10:51 | 38.96895 | 16.04782 | 29691 ft | 399 kts | 308° |
| 2026-04-23 10:52 | 38.98692 | 16.02057 | 30094 ft | 398 kts | 308° |
| 2026-04-23 10:52 | 39.00477 | 15.99349 | 30556 ft | 396 kts | 308° |
| 2026-04-23 10:52 | 39.02259 | 15.96643 | 30948 ft | 396 kts | 308° |
| 2026-04-23 10:52 | 39.04031 | 15.93949 | 31361 ft | 395 kts | 308° |
| 2026-04-23 10:53 | 39.05804 | 15.91247 | 31682 ft | 396 kts | 308° |
| 2026-04-23 10:53 | 39.07577 | 15.88539 | 32028 ft | 396 kts | 308° |
| 2026-04-23 10:53 | 39.09348 | 15.85832 | 32415 ft | 394 kts | 308° |
| 2026-04-23 10:53 | 39.11114 | 15.83130 | 32713 ft | 395 kts | 308° |
| 2026-04-23 10:54 | 39.12862 | 15.80454 | 33032 ft | 395 kts | 308° |
| 2026-04-23 10:54 | 39.14631 | 15.77743 | 33352 ft | 395 kts | 308° |
| 2026-04-23 10:54 | 39.16401 | 15.75028 | 33672 ft | 395 kts | 308° |
| 2026-04-23 10:54 | 39.18168 | 15.72316 | 33964 ft | 396 kts | 308° |
| 2026-04-23 10:55 | 39.19941 | 15.69594 | 34236 ft | 397 kts | 308° |
| 2026-04-23 10:55 | 39.21737 | 15.66834 | 34528 ft | 397 kts | 308° |
| 2026-04-23 10:55 | 39.23490 | 15.64144 | 34798 ft | 397 kts | 308° |
| 2026-04-23 10:55 | 39.25268 | 15.61420 | 35068 ft | 397 kts | 308° |
| 2026-04-23 10:56 | 39.27054 | 15.58684 | 35312 ft | 398 kts | 308° |
| 2026-04-23 10:56 | 39.28837 | 15.55948 | 35557 ft | 399 kts | 308° |
| 2026-04-23 10:56 | 39.30621 | 15.53209 | 35824 ft | 399 kts | 308° |
| 2026-04-23 10:56 | 39.32410 | 15.50459 | 36033 ft | 400 kts | 308° |
| 2026-04-23 10:57 | 39.34201 | 15.47701 | 36269 ft | 400 kts | 308° |
| 2026-04-23 10:57 | 39.35987 | 15.44950 | 36502 ft | 401 kts | 308° |
| 2026-04-23 10:57 | 39.37782 | 15.42182 | 36701 ft | 402 kts | 308° |
| 2026-04-23 10:57 | 39.39575 | 15.39414 | 36966 ft | 401 kts | 309° |
| 2026-04-23 10:58 | 39.41361 | 15.36656 | 37264 ft | 399 kts | 309° |
| 2026-04-23 10:58 | 39.43136 | 15.33912 | 37559 ft | 398 kts | 309° |
| 2026-04-23 10:58 | 39.44910 | 15.31166 | 37785 ft | 397 kts | 309° |
| 2026-04-23 10:58 | 39.46679 | 15.28424 | 37997 ft | 397 kts | 309° |
| 2026-04-23 10:59 | 39.48453 | 15.25675 | 38106 ft | 399 kts | 309° |
| 2026-04-23 10:59 | 39.50241 | 15.22901 | 38108 ft | 402 kts | 309° |
| 2026-04-23 10:59 | 39.53214 | 15.18283 | 38102 ft | 401 kts | 309° |
| 2026-04-23 11:00 | 39.56752 | 15.12781 | 38101 ft | 394 kts | 309° |
| 2026-04-23 11:00 | 39.60248 | 15.07332 | 38111 ft | 392 kts | 309° |
| 2026-04-23 11:01 | 39.63725 | 15.01903 | 38119 ft | 390 kts | 309° |
| 2026-04-23 11:01 | 39.67188 | 14.96487 | 38121 ft | 390 kts | 309° |
| 2026-04-23 11:02 | 39.70650 | 14.91063 | 38121 ft | 390 kts | 309° |
| 2026-04-23 11:02 | 39.74114 | 14.85622 | 38122 ft | 391 kts | 309° |
| 2026-04-23 11:03 | 39.77585 | 14.80166 | 38123 ft | 393 kts | 309° |
| 2026-04-23 11:03 | 39.81074 | 14.74674 | 38121 ft | 394 kts | 309° |
| 2026-04-23 11:04 | 39.84562 | 14.69156 | 38123 ft | 396 kts | 309° |
| 2026-04-23 11:04 | 39.88060 | 14.63607 | 38131 ft | 397 kts | 309° |
| 2026-04-23 11:05 | 39.91546 | 14.58067 | 38128 ft | 398 kts | 309° |
| 2026-04-23 11:05 | 39.95081 | 14.52437 | 38128 ft | 399 kts | 309° |
| 2026-04-23 11:06 | 40.00333 | 14.44060 | 38127 ft | 399 kts | 309° |
| 2026-04-23 11:07 | 40.03844 | 14.38449 | 38124 ft | 400 kts | 309° |
| 2026-04-23 11:07 | 40.07353 | 14.32828 | 38143 ft | 399 kts | 309° |
| 2026-04-23 11:08 | 40.10855 | 14.27206 | 38128 ft | 398 kts | 309° |
| 2026-04-23 11:08 | 40.14343 | 14.21599 | 38150 ft | 397 kts | 309° |
| 2026-04-23 11:09 | 40.17824 | 14.15995 | 38162 ft | 397 kts | 309° |
| 2026-04-23 11:09 | 40.21313 | 14.10407 | 38155 ft | 396 kts | 309° |
| 2026-04-23 11:10 | 40.24808 | 14.04832 | 38162 ft | 396 kts | 309° |
| 2026-04-23 11:10 | 40.28293 | 13.99255 | 38149 ft | 396 kts | 309° |
| 2026-04-23 11:11 | 40.31759 | 13.93651 | 38145 ft | 396 kts | 309° |
| 2026-04-23 11:11 | 40.35219 | 13.88029 | 38147 ft | 396 kts | 309° |
| 2026-04-23 11:12 | 40.38670 | 13.82415 | 38150 ft | 396 kts | 309° |
| 2026-04-23 11:12 | 40.42124 | 13.76792 | 38154 ft | 396 kts | 309° |
| 2026-04-23 11:13 | 40.45576 | 13.71157 | 38164 ft | 396 kts | 309° |
| 2026-04-23 11:13 | 40.49027 | 13.65509 | 38171 ft | 397 kts | 309° |
| 2026-04-23 11:14 | 40.52489 | 13.59835 | 38162 ft | 398 kts | 309° |
| 2026-04-23 11:14 | 40.55957 | 13.54143 | 38158 ft | 399 kts | 309° |
| 2026-04-23 11:15 | 40.59433 | 13.48430 | 38150 ft | 400 kts | 309° |
| 2026-04-23 11:15 | 40.62911 | 13.42705 | 38151 ft | 401 kts | 309° |
| 2026-04-23 11:16 | 40.66393 | 13.36960 | 38144 ft | 402 kts | 309° |
| 2026-04-23 11:16 | 40.69884 | 13.31190 | 38139 ft | 402 kts | 309° |
| 2026-04-23 11:17 | 40.73367 | 13.25421 | 38140 ft | 403 kts | 309° |
| 2026-04-23 11:17 | 40.76851 | 13.19639 | 38146 ft | 402 kts | 309° |
| 2026-04-23 11:18 | 40.80306 | 13.13892 | 38146 ft | 402 kts | 309° |
| 2026-04-23 11:18 | 40.83779 | 13.08105 | 38140 ft | 402 kts | 309° |
| 2026-04-23 11:19 | 40.87253 | 13.02306 | 38146 ft | 402 kts | 309° |
| 2026-04-23 11:19 | 40.90718 | 12.96513 | 38162 ft | 402 kts | 309° |
| 2026-04-23 11:20 | 40.94486 | 12.91069 | 38164 ft | 401 kts | 315° |
| 2026-04-23 11:20 | 40.98430 | 12.85828 | 38156 ft | 402 kts | 315° |
| 2026-04-23 11:21 | 41.02353 | 12.80570 | 38159 ft | 402 kts | 315° |
| 2026-04-23 11:21 | 41.06260 | 12.75270 | 38156 ft | 402 kts | 315° |
| 2026-04-23 11:22 | 41.10158 | 12.69955 | 38163 ft | 402 kts | 315° |
| 2026-04-23 11:22 | 41.14054 | 12.64634 | 38153 ft | 402 kts | 315° |
| 2026-04-23 11:23 | 41.17958 | 12.59293 | 38163 ft | 403 kts | 315° |
| 2026-04-23 11:23 | 41.21857 | 12.53949 | 38157 ft | 404 kts | 315° |
| 2026-04-23 11:24 | 41.25776 | 12.48586 | 38153 ft | 404 kts | 315° |
| 2026-04-23 11:24 | 41.29704 | 12.43213 | 38156 ft | 405 kts | 315° |
| 2026-04-23 11:25 | 41.33632 | 12.37828 | 38159 ft | 406 kts | 315° |
| 2026-04-23 11:25 | 41.37571 | 12.32419 | 38154 ft | 407 kts | 315° |
| 2026-04-23 11:26 | 41.41512 | 12.26992 | 38161 ft | 408 kts | 315° |
| 2026-04-23 11:26 | 41.45457 | 12.21552 | 38150 ft | 409 kts | 315° |
| 2026-04-23 11:27 | 41.49412 | 12.16089 | 38157 ft | 410 kts | 315° |
| 2026-04-23 11:27 | 41.53368 | 12.10604 | 38157 ft | 410 kts | 316° |
| 2026-04-23 11:28 | 41.57330 | 12.05098 | 38152 ft | 411 kts | 316° |
| 2026-04-23 11:28 | 41.61294 | 11.99579 | 38158 ft | 412 kts | 316° |
| 2026-04-23 11:29 | 41.65260 | 11.94050 | 38159 ft | 412 kts | 316° |
| 2026-04-23 11:29 | 41.69225 | 11.88508 | 38162 ft | 412 kts | 316° |
| 2026-04-23 11:30 | 41.73190 | 11.82958 | 38156 ft | 412 kts | 316° |
| 2026-04-23 11:30 | 41.77149 | 11.77409 | 38156 ft | 412 kts | 316° |
| 2026-04-23 11:31 | 41.81103 | 11.71858 | 38168 ft | 411 kts | 315° |
| 2026-04-23 11:31 | 41.85022 | 11.66338 | 38172 ft | 411 kts | 315° |
| 2026-04-23 11:32 | 41.88987 | 11.60742 | 38177 ft | 410 kts | 315° |
| 2026-04-23 11:32 | 41.92891 | 11.55220 | 38175 ft | 410 kts | 315° |
| 2026-04-23 11:33 | 41.96839 | 11.49627 | 38177 ft | 410 kts | 315° |
| 2026-04-23 11:33 | 42.00728 | 11.44105 | 38188 ft | 409 kts | 315° |
| 2026-04-23 11:34 | 42.04645 | 11.38538 | 38179 ft | 409 kts | 315° |
| 2026-04-23 11:34 | 42.08557 | 11.32969 | 38187 ft | 410 kts | 315° |
| 2026-04-23 11:35 | 42.12476 | 11.27383 | 38191 ft | 411 kts | 315° |
| 2026-04-23 11:35 | 42.16395 | 11.21784 | 38194 ft | 411 kts | 315° |
| 2026-04-23 11:36 | 42.20324 | 11.16161 | 38197 ft | 412 kts | 315° |
| 2026-04-23 11:36 | 42.24256 | 11.10521 | 38194 ft | 413 kts | 315° |
| 2026-04-23 11:37 | 42.28197 | 11.04864 | 38198 ft | 414 kts | 315° |
| 2026-04-23 11:37 | 42.32141 | 10.99181 | 38210 ft | 414 kts | 315° |
| 2026-04-23 11:38 | 42.36085 | 10.93494 | 38219 ft | 415 kts | 315° |
| 2026-04-23 11:38 | 42.40028 | 10.87799 | 38225 ft | 415 kts | 315° |
| 2026-04-23 11:39 | 42.43967 | 10.82103 | 38220 ft | 414 kts | 315° |
| 2026-04-23 11:39 | 42.47901 | 10.76402 | 38219 ft | 413 kts | 315° |
| 2026-04-23 11:40 | 42.51817 | 10.70713 | 38222 ft | 413 kts | 315° |
| 2026-04-23 11:40 | 42.55725 | 10.65026 | 38224 ft | 412 kts | 315° |
| 2026-04-23 11:41 | 42.59624 | 10.59341 | 38227 ft | 411 kts | 315° |
| 2026-04-23 11:41 | 42.63510 | 10.53664 | 38230 ft | 410 kts | 315° |
| 2026-04-23 11:42 | 42.67384 | 10.47993 | 38240 ft | 409 kts | 315° |
| 2026-04-23 11:42 | 42.71252 | 10.42318 | 38239 ft | 409 kts | 315° |
| 2026-04-23 11:43 | 42.75355 | 10.36997 | 38255 ft | 407 kts | 322° |
| 2026-04-23 11:43 | 42.79767 | 10.32168 | 38247 ft | 407 kts | 323° |
| 2026-04-23 11:44 | 42.84163 | 10.27372 | 38231 ft | 408 kts | 323° |
| 2026-04-23 11:44 | 42.88588 | 10.22507 | 38241 ft | 409 kts | 322° |
| 2026-04-23 11:45 | 42.93009 | 10.17616 | 38244 ft | 410 kts | 322° |
| 2026-04-23 11:45 | 42.97442 | 10.12691 | 38229 ft | 411 kts | 322° |
| 2026-04-23 11:46 | 43.01883 | 10.07747 | 38245 ft | 413 kts | 322° |
| 2026-04-23 11:46 | 43.05587 | 10.03618 | 38232 ft | 414 kts | 322° |
| 2026-04-23 11:47 | 43.10055 | 9.98629 | 38246 ft | 415 kts | 322° |
| 2026-04-23 11:47 | 43.14536 | 9.93617 | 38248 ft | 416 kts | 322° |
| 2026-04-23 11:48 | 43.19015 | 9.88595 | 38230 ft | 417 kts | 322° |
| 2026-04-23 11:48 | 43.23500 | 9.83555 | 38238 ft | 416 kts | 322° |
| 2026-04-23 11:49 | 43.27974 | 9.78518 | 38234 ft | 416 kts | 322° |
| 2026-04-23 11:49 | 43.32442 | 9.73480 | 38243 ft | 415 kts | 322° |
| 2026-04-23 11:50 | 43.36902 | 9.68445 | 38233 ft | 415 kts | 322° |
| 2026-04-23 11:50 | 43.41361 | 9.63393 | 38238 ft | 415 kts | 322° |
| 2026-04-23 11:50 | 43.43589 | 9.60867 | 38124 ft | 417 kts | 322° |
| 2026-04-23 11:51 | 43.45842 | 9.58311 | 37699 ft | 419 kts | 322° |
| 2026-04-23 11:51 | 43.48084 | 9.55764 | 37160 ft | 418 kts | 322° |
| 2026-04-23 11:51 | 43.50319 | 9.53222 | 36675 ft | 416 kts | 323° |
| 2026-04-23 11:51 | 43.52550 | 9.50682 | 36119 ft | 416 kts | 323° |
| 2026-04-23 11:52 | 43.54781 | 9.48140 | 35524 ft | 417 kts | 323° |
| 2026-04-23 11:52 | 43.57016 | 9.45591 | 34932 ft | 418 kts | 323° |
| 2026-04-23 11:52 | 43.59257 | 9.43033 | 34323 ft | 419 kts | 323° |
| 2026-04-23 11:52 | 43.61505 | 9.40462 | 33709 ft | 420 kts | 323° |
| 2026-04-23 11:53 | 43.63754 | 9.37887 | 33099 ft | 421 kts | 323° |
| 2026-04-23 11:53 | 43.66010 | 9.35305 | 32544 ft | 420 kts | 323° |
| 2026-04-23 11:53 | 43.68250 | 9.32736 | 32120 ft | 417 kts | 323° |
| 2026-04-23 11:53 | 43.70470 | 9.30188 | 31669 ft | 414 kts | 323° |
| 2026-04-23 11:54 | 43.72676 | 9.27654 | 31235 ft | 411 kts | 324° |
| 2026-04-23 11:54 | 43.74870 | 9.25132 | 30804 ft | 408 kts | 324° |
| 2026-04-23 11:54 | 43.77046 | 9.22627 | 30381 ft | 406 kts | 324° |
| 2026-04-23 11:54 | 43.79208 | 9.20136 | 29949 ft | 403 kts | 324° |
| 2026-04-23 11:55 | 43.81355 | 9.17661 | 29511 ft | 400 kts | 324° |
| 2026-04-23 11:55 | 43.83489 | 9.15197 | 29072 ft | 398 kts | 324° |
| 2026-04-23 11:55 | 43.85607 | 9.12749 | 28643 ft | 395 kts | 324° |
| 2026-04-23 11:55 | 43.87709 | 9.10319 | 28208 ft | 393 kts | 324° |
| 2026-04-23 11:56 | 43.89774 | 9.07928 | 27785 ft | 390 kts | 324° |
| 2026-04-23 11:56 | 43.91851 | 9.05522 | 27358 ft | 388 kts | 324° |
| 2026-04-23 11:56 | 43.93913 | 9.03130 | 26933 ft | 386 kts | 324° |
| 2026-04-23 11:56 | 43.95965 | 9.00749 | 26511 ft | 383 kts | 324° |
| 2026-04-23 11:57 | 43.98005 | 8.98379 | 26091 ft | 381 kts | 324° |
| 2026-04-23 11:57 | 44.00031 | 8.96023 | 25677 ft | 379 kts | 324° |
| 2026-04-23 11:57 | 44.02045 | 8.93678 | 25261 ft | 377 kts | 324° |
| 2026-04-23 11:57 | 44.04060 | 8.91331 | 24831 ft | 378 kts | 325° |
| 2026-04-23 11:58 | 44.06076 | 8.88982 | 24409 ft | 379 kts | 325° |
| 2026-04-23 11:58 | 44.08110 | 8.86613 | 23994 ft | 387 kts | 325° |
| 2026-04-23 11:58 | 44.10209 | 8.84167 | 23564 ft | 398 kts | 325° |
| 2026-04-23 11:58 | 44.12332 | 8.81686 | 23105 ft | 398 kts | 324° |
| 2026-04-23 11:59 | 44.14445 | 8.79208 | 22650 ft | 396 kts | 324° |
| 2026-04-23 11:59 | 44.16540 | 8.76750 | 22194 ft | 393 kts | 324° |
| 2026-04-23 11:59 | 44.18622 | 8.74304 | 21761 ft | 390 kts | 324° |
| 2026-04-23 11:59 | 44.20688 | 8.71876 | 21326 ft | 387 kts | 324° |
| 2026-04-23 12:00 | 44.22737 | 8.69467 | 20894 ft | 384 kts | 324° |
| 2026-04-23 12:00 | 44.24769 | 8.67076 | 20465 ft | 381 kts | 324° |
| 2026-04-23 12:00 | 44.26790 | 8.64697 | 20037 ft | 378 kts | 324° |
| 2026-04-23 12:00 | 44.28791 | 8.62338 | 19616 ft | 375 kts | 324° |
| 2026-04-23 12:01 | 44.30781 | 8.59991 | 19194 ft | 373 kts | 323° |
| 2026-04-23 12:01 | 44.32751 | 8.57665 | 18772 ft | 370 kts | 323° |
| 2026-04-23 12:01 | 44.34711 | 8.55350 | 18351 ft | 368 kts | 323° |
| 2026-04-23 12:01 | 44.36657 | 8.53049 | 17937 ft | 365 kts | 323° |
| 2026-04-23 12:02 | 44.38585 | 8.50768 | 17518 ft | 362 kts | 323° |
| 2026-04-23 12:02 | 44.40446 | 8.48405 | 17117 ft | 361 kts | 317° |
| 2026-04-23 12:02 | 44.42125 | 8.45813 | 16749 ft | 359 kts | 314° |
| 2026-04-23 12:02 | 44.43738 | 8.43156 | 16342 ft | 357 kts | 313° |
| 2026-04-23 12:03 | 44.45334 | 8.40509 | 15936 ft | 355 kts | 314° |
| 2026-04-23 12:03 | 44.46932 | 8.37890 | 15510 ft | 353 kts | 314° |
| 2026-04-23 12:03 | 44.48531 | 8.35300 | 15108 ft | 350 kts | 314° |
| 2026-04-23 12:03 | 44.50123 | 8.32742 | 14709 ft | 347 kts | 315° |
| 2026-04-23 12:04 | 44.51709 | 8.30203 | 14312 ft | 345 kts | 315° |
| 2026-04-23 12:04 | 44.53285 | 8.27684 | 14003 ft | 341 kts | 315° |
| 2026-04-23 12:04 | 44.54822 | 8.25222 | 13852 ft | 331 kts | 315° |
| 2026-04-23 12:04 | 44.56319 | 8.22824 | 13704 ft | 322 kts | 315° |
| 2026-04-23 12:05 | 44.57770 | 8.20497 | 13532 ft | 314 kts | 315° |
| 2026-04-23 12:05 | 44.59206 | 8.18188 | 13180 ft | 313 kts | 315° |
| 2026-04-23 12:05 | 44.60632 | 8.15889 | 12846 ft | 312 kts | 314° |
| 2026-04-23 12:05 | 44.62052 | 8.13595 | 12529 ft | 310 kts | 314° |
| 2026-04-23 12:06 | 44.63466 | 8.11311 | 12236 ft | 308 kts | 315° |
| 2026-04-23 12:06 | 44.64849 | 8.09074 | 12101 ft | 299 kts | 315° |
| 2026-04-23 12:06 | 44.67496 | 8.04786 | 11814 ft | 284 kts | 315° |
| 2026-04-23 12:07 | 44.68790 | 8.02695 | 11534 ft | 282 kts | 315° |
| 2026-04-23 12:07 | 44.70077 | 8.00619 | 11245 ft | 282 kts | 314° |
| 2026-04-23 12:07 | 44.71345 | 7.98571 | 10967 ft | 281 kts | 314° |
| 2026-04-23 12:07 | 44.72622 | 7.96503 | 10695 ft | 280 kts | 314° |
| 2026-04-23 12:08 | 44.73912 | 7.94414 | 10419 ft | 279 kts | 314° |
| 2026-04-23 12:08 | 44.75141 | 7.92306 | 10122 ft | 280 kts | 303° |
| 2026-04-23 12:08 | 44.75719 | 7.89695 | 9839 ft | 284 kts | 273° |
| 2026-04-23 12:08 | 44.75408 | 7.87007 | 9601 ft | 284 kts | 252° |
| 2026-04-23 12:09 | 44.74698 | 7.84389 | 9340 ft | 282 kts | 249° |
| 2026-04-23 12:09 | 44.73968 | 7.81876 | 9072 ft | 281 kts | 249° |
| 2026-04-23 12:09 | 44.73236 | 7.79329 | 8834 ft | 279 kts | 249° |
| 2026-04-23 12:09 | 44.72723 | 7.76734 | 8559 ft | 275 kts | 271° |
| 2026-04-23 12:10 | 44.73125 | 7.74176 | 8366 ft | 266 kts | 298° |
| 2026-04-23 12:10 | 44.74189 | 7.72088 | 8141 ft | 261 kts | 315° |
| 2026-04-23 12:10 | 44.75452 | 7.70287 | 7920 ft | 257 kts | 317° |
| 2026-04-23 12:10 | 44.76707 | 7.68508 | 7708 ft | 255 kts | 316° |
| 2026-04-23 12:11 | 44.77948 | 7.66729 | 7296 ft | 256 kts | 316° |
| 2026-04-23 12:11 | 44.79172 | 7.64963 | 7028 ft | 249 kts | 315° |
| 2026-04-23 12:11 | 44.80404 | 7.63303 | 6781 ft | 241 kts | 327° |
| 2026-04-23 12:11 | 44.81941 | 7.62574 | 6607 ft | 232 kts | 354° |
| 2026-04-23 12:12 | 44.83569 | 7.62542 | 6413 ft | 236 kts | 3° |
| 2026-04-23 12:12 | 44.85211 | 7.62676 | 6207 ft | 237 kts | 4° |
| 2026-04-23 12:12 | 44.86867 | 7.62814 | 6003 ft | 239 kts | 4° |
| 2026-04-23 12:12 | 44.88529 | 7.62940 | 5805 ft | 239 kts | 3° |
| 2026-04-23 12:13 | 44.90187 | 7.63061 | 5582 ft | 239 kts | 3° |
| 2026-04-23 12:13 | 44.91829 | 7.63171 | 5445 ft | 232 kts | 3° |
| 2026-04-23 12:13 | 44.93421 | 7.63278 | 5369 ft | 226 kts | 3° |
| 2026-04-23 12:13 | 44.94966 | 7.63376 | 5287 ft | 219 kts | 2° |
| 2026-04-23 12:14 | 44.96474 | 7.63471 | 5235 ft | 215 kts | 2° |
| 2026-04-23 12:14 | 44.97994 | 7.63567 | 4983 ft | 222 kts | 2° |
| 2026-04-23 12:14 | 44.99531 | 7.63662 | 4730 ft | 220 kts | 2° |
| 2026-04-23 12:14 | 45.01055 | 7.63760 | 4423 ft | 218 kts | 2° |
| 2026-04-23 12:15 | 45.02553 | 7.63854 | 4146 ft | 214 kts | 2° |
| 2026-04-23 12:15 | 45.04017 | 7.63947 | 3863 ft | 208 kts | 2° |
| 2026-04-23 12:15 | 45.05455 | 7.64038 | 3566 ft | 204 kts | 2° |
| 2026-04-23 12:15 | 45.06861 | 7.64127 | 3306 ft | 200 kts | 2° |
| 2026-04-23 12:16 | 45.08223 | 7.64213 | 3051 ft | 190 kts | 2° |
| 2026-04-23 12:16 | 45.09500 | 7.64294 | 2829 ft | 175 kts | 2° |
| 2026-04-23 12:16 | 45.10667 | 7.64368 | 2571 ft | 161 kts | 2° |
| 2026-04-23 12:16 | 45.11755 | 7.64437 | 2371 ft | 155 kts | 2° |
| 2026-04-23 12:17 | 45.12830 | 7.64506 | 2164 ft | 154 kts | 3° |
| 2026-04-23 12:17 | 45.13895 | 7.64572 | 1965 ft | 152 kts | 2° |
| 2026-04-23 12:17 | 45.14933 | 7.64638 | 1767 ft | 147 kts | 2° |
| 2026-04-23 12:17 | 45.15966 | 7.64704 | 1574 ft | 152 kts | 3° |
| 2026-04-23 12:18 | 45.17046 | 7.64772 | 1373 ft | 157 kts | 3° |
| 2026-04-23 12:18 | 45.18135 | 7.64841 | 1166 ft | 156 kts | 3° |
| 2026-04-23 12:18 | 45.19195 | 7.64909 | 995 ft | 144 kts | 3° |
| 2026-04-23 12:18 | 45.20099 | 7.64960 | 979 ft | 106 kts | 2° |
| 2026-04-23 12:19 | 45.20594 | 7.64991 | 986 ft | 46 kts | 3° |
| 2026-04-23 12:19 | 45.20799 | 7.65005 | 981 ft | 12 kts | 359° |
| 2026-04-23 12:19 | 45.20861 | 7.64944 | 987 ft | 11 kts | 307° |
| 2026-04-23 12:19 | 45.20880 | 7.64840 | 984 ft | 11 kts | 268° |
| 2026-04-23 12:20 | 45.20838 | 7.64761 | 992 ft | 11 kts | 206° |
| 2026-04-23 12:20 | 45.20767 | 7.64740 | 984 ft | 10 kts | 185° |
| 2026-04-23 12:20 | 45.20697 | 7.64736 | 993 ft | 10 kts | 182° |
| 2026-04-23 12:20 | 45.20618 | 7.64731 | 992 ft | 13 kts | 183° |
| 2026-04-23 12:21 | 45.20521 | 7.64723 | 989 ft | 16 kts | 183° |
| 2026-04-23 12:21 | 45.20403 | 7.64715 | 985 ft | 18 kts | 182° |
| 2026-04-23 12:21 | 45.20269 | 7.64708 | 991 ft | 20 kts | 182° |
| 2026-04-23 12:21 | 45.20131 | 7.64700 | 984 ft | 19 kts | 183° |
| 2026-04-23 12:22 | 45.19998 | 7.64691 | 988 ft | 19 kts | 182° |
| 2026-04-23 12:22 | 45.19868 | 7.64682 | 984 ft | 18 kts | 182° |
| 2026-04-23 12:22 | 45.19769 | 7.64688 | 988 ft | 12 kts | 165° |
| 2026-04-23 12:22 | 45.19721 | 7.64674 | 987 ft | 4 kts | 255° |
| 2026-04-23 12:23 | 45.19716 | 7.64635 | 989 ft | 4 kts | 260° |
| 2026-04-23 12:23 | 45.19709 | 7.64595 | 985 ft | 5 kts | 254° |
| 2026-04-23 12:23 | 45.19689 | 7.64546 | 985 ft | 7 kts | 210° |
| 2026-04-23 12:23 | 45.19644 | 7.64540 | 985 ft | 7 kts | 182° |
| 2026-04-23 12:24 | 45.19599 | 7.64538 | 985 ft | 6 kts | 182° |
| 2026-04-23 12:24 | 45.19555 | 7.64535 | 985 ft | 6 kts | 182° |
| 2026-04-23 12:24 | 45.19512 | 7.64533 | 985 ft | 6 kts | 182° |
| 2026-04-23 12:24 | 45.19470 | 7.64530 | 993 ft | 6 kts | 182° |
| 2026-04-23 12:25 | 45.19429 | 7.64527 | 986 ft | 6 kts | 182° |
| 2026-04-23 12:25 | 45.19388 | 7.64525 | 991 ft | 6 kts | 188° |
| 2026-04-23 12:25 | 45.19366 | 7.64495 | 985 ft | 4 kts | 232° |
| 2026-04-23 12:25 | 45.19354 | 7.64473 | 985 ft | 1 kts | 232° |